CheckWX is a tool to help pilots better visualize weather data.  It is not intended as a substitute for an official pre-flight weather briefing.

12:29:20 UTC

DAFH TAF
Hassi R'Mel Airport
Algeria
TAF DAFH 040800Z 0409/0418 06010KT CAVOK BECMG 0410/0413 16010KT

Apr-4@
09:00 UTC

Apr-4 @ 09:00 UTC

Apr-4@
10:00 UTC

Apr-4 @ 10:00 UTC

TAF DAFH 040800Z 0409/0418 06010KT CAVOK

Expired

Wind
  • 060° at 10 KTS
Conditions
No significant weather
Cloud Levels
  • No significant clouds

Apr-4@
10:00 UTC

Apr-4 @ 10:00 UTC

Apr-4@
18:00 UTC

Apr-4 @ 18:00 UTC

BECMG 0410/0413 16010KT

Becoming

Becoming Conditions expected by Sat, Apr 4, 2020 @ 13:00 UTC

Wind
  • 160° at 10 KTS
Conditions
No significant weather
Cloud Levels
  • No significant clouds